Brazoria County Airport Angleton, Lake Jackson US
ICAO: KLBX
IATA: LBX
Category: Medium
Scheduled Services: No

Elevation: 25 ft
TransAlt. 18000 ft.

Airport Communications:
HOUSTON APP/DEP:134.45
ASOS:119.925
CLNC DEL:125.2
CTAF/UNICOM:123

KLBX Zoom In..

Runways:

(A) RW 17 length 7000 ft width 100 ft
ILS 109.10 / hdg 175

(B) RW 35 length 7000 ft width 100 ft
---- / hdg 355

Location; KLBX
Day. 06 / Time. 05.53 Zulu
* Altimeter: 29.93
* Temperature: 23° c. 73.4°f.
* Wind from: 020° Speed 04 kn.
Dewpoint: 22° c.
Visibility: 9 Statute Miles.
Clouds: Clear (automated report).

KLBX 060553Z AUTO 02004KT 9SM CLR 23/22 A2993 RMK AO2 SLP134 T02280217 10300 20228 403220211 50002


Wind From 020°
Speed 04 kn.

 
 
jpsmedia worldairports.se 2020   terms of use